sensor_id;sensor_type;location;lat;lon;timestamp;P1;durP1;ratioP1;P2;durP2;ratioP2
16963;SDS011;8598;50.508;10.436;2022-09-28T00:01:25;9.77;;;6.30;;
16963;SDS011;8598;50.508;10.436;2022-09-28T00:03:54;10.53;;;6.33;;
16963;SDS011;8598;50.508;10.436;2022-09-28T00:06:23;8.77;;;6.63;;
16963;SDS011;8598;50.508;10.436;2022-09-28T00:08:50;9.03;;;6.60;;
16963;SDS011;8598;50.508;10.436;2022-09-28T00:11:17;8.67;;;6.47;;
16963;SDS011;8598;50.508;10.436;2022-09-28T00:13:47;10.37;;;6.30;;
16963;SDS011;8598;50.508;10.436;2022-09-28T00:16:16;11.10;;;5.93;;
16963;SDS011;8598;50.508;10.436;2022-09-28T00:18:44;8.53;;;5.93;;
16963;SDS011;8598;50.508;10.436;2022-09-28T00:21:13;7.93;;;6.53;;
16963;SDS011;8598;50.508;10.436;2022-09-28T00:23:41;7.23;;;5.60;;
16963;SDS011;8598;50.508;10.436;2022-09-28T00:26:23;6.57;;;5.33;;
16963;SDS011;8598;50.508;10.436;2022-09-28T00:28:50;8.27;;;5.47;;
16963;SDS011;8598;50.508;10.436;2022-09-28T00:31:17;13.80;;;7.30;;
16963;SDS011;8598;50.508;10.436;2022-09-28T00:33:44;7.67;;;5.30;;
16963;SDS011;8598;50.508;10.436;2022-09-28T00:36:15;6.60;;;4.67;;
16963;SDS011;8598;50.508;10.436;2022-09-28T00:38:42;7.30;;;5.60;;
16963;SDS011;8598;50.508;10.436;2022-09-28T00:41:09;7.60;;;5.17;;
16963;SDS011;8598;50.508;10.436;2022-09-28T00:43:36;9.80;;;6.07;;
16963;SDS011;8598;50.508;10.436;2022-09-28T00:46:04;11.10;;;6.57;;
16963;SDS011;8598;50.508;10.436;2022-09-28T00:48:37;11.37;;;6.87;;
16963;SDS011;8598;50.508;10.436;2022-09-28T00:51:10;11.10;;;6.03;;
16963;SDS011;8598;50.508;10.436;2022-09-28T00:53:39;9.07;;;6.53;;
16963;SDS011;8598;50.508;10.436;2022-09-28T00:56:09;7.97;;;6.40;;
16963;SDS011;8598;50.508;10.436;2022-09-28T00:58:42;9.63;;;6.63;;
16963;SDS011;8598;50.508;10.436;2022-09-28T01:01:11;8.50;;;6.20;;
16963;SDS011;8598;50.508;10.436;2022-09-28T01:03:38;9.57;;;6.30;;
16963;SDS011;8598;50.508;10.436;2022-09-28T01:06:09;13.13;;;6.57;;
16963;SDS011;8598;50.508;10.436;2022-09-28T01:08:37;9.47;;;7.23;;
16963;SDS011;8598;50.508;10.436;2022-09-28T01:11:08;13.30;;;7.50;;
16963;SDS011;8598;50.508;10.436;2022-09-28T01:13:35;9.23;;;7.07;;
16963;SDS011;8598;50.508;10.436;2022-09-28T01:16:03;9.27;;;6.30;;
16963;SDS011;8598;50.508;10.436;2022-09-28T01:18:39;9.30;;;6.60;;
16963;SDS011;8598;50.508;10.436;2022-09-28T01:21:13;9.10;;;7.13;;
16963;SDS011;8598;50.508;10.436;2022-09-28T01:23:57;11.00;;;6.80;;
16963;SDS011;8598;50.508;10.436;2022-09-28T01:29:30;11.03;;;7.10;;
16963;SDS011;8598;50.508;10.436;2022-09-28T01:32:05;11.23;;;7.00;;
16963;SDS011;8598;50.508;10.436;2022-09-28T01:34:40;11.53;;;6.77;;
16963;SDS011;8598;50.508;10.436;2022-09-28T01:37:12;9.80;;;6.50;;
16963;SDS011;8598;50.508;10.436;2022-09-28T01:39:42;12.87;;;8.03;;
16963;SDS011;8598;50.508;10.436;2022-09-28T01:42:14;10.17;;;7.27;;
16963;SDS011;8598;50.508;10.436;2022-09-28T01:44:45;14.33;;;6.80;;
16963;SDS011;8598;50.508;10.436;2022-09-28T01:47:16;12.67;;;7.63;;
16963;SDS011;8598;50.508;10.436;2022-09-28T01:49:46;12.33;;;6.83;;
16963;SDS011;8598;50.508;10.436;2022-09-28T01:52:17;12.13;;;7.10;;
16963;SDS011;8598;50.508;10.436;2022-09-28T01:54:47;14.97;;;6.87;;
16963;SDS011;8598;50.508;10.436;2022-09-28T01:57:20;9.43;;;6.53;;
16963;SDS011;8598;50.508;10.436;2022-09-28T01:59:53;9.07;;;5.80;;
16963;SDS011;8598;50.508;10.436;2022-09-28T02:02:25;10.40;;;6.07;;
16963;SDS011;8598;50.508;10.436;2022-09-28T02:04:56;10.17;;;5.50;;
16963;SDS011;8598;50.508;10.436;2022-09-28T02:07:28;9.83;;;6.50;;
16963;SDS011;8598;50.508;10.436;2022-09-28T02:09:59;10.03;;;6.50;;
16963;SDS011;8598;50.508;10.436;2022-09-28T02:12:32;8.00;;;5.90;;
16963;SDS011;8598;50.508;10.436;2022-09-28T02:15:05;9.77;;;6.67;;
16963;SDS011;8598;50.508;10.436;2022-09-28T02:17:36;8.27;;;6.20;;
16963;SDS011;8598;50.508;10.436;2022-09-28T02:20:04;9.07;;;5.90;;
16963;SDS011;8598;50.508;10.436;2022-09-28T02:22:32;7.40;;;5.90;;
16963;SDS011;8598;50.508;10.436;2022-09-28T02:25:02;12.33;;;5.67;;
16963;SDS011;8598;50.508;10.436;2022-09-28T02:27:36;7.10;;;5.47;;
16963;SDS011;8598;50.508;10.436;2022-09-28T02:30:08;9.33;;;5.87;;
16963;SDS011;8598;50.508;10.436;2022-09-28T02:32:36;7.97;;;5.50;;
16963;SDS011;8598;50.508;10.436;2022-09-28T02:35:07;7.20;;;5.53;;
16963;SDS011;8598;50.508;10.436;2022-09-28T02:37:35;6.33;;;5.37;;
16963;SDS011;8598;50.508;10.436;2022-09-28T02:40:02;7.70;;;5.70;;
16963;SDS011;8598;50.508;10.436;2022-09-28T02:42:37;7.47;;;5.20;;
16963;SDS011;8598;50.508;10.436;2022-09-28T02:45:12;8.10;;;5.43;;
16963;SDS011;8598;50.508;10.436;2022-09-28T02:47:51;10.37;;;6.23;;
16963;SDS011;8598;50.508;10.436;2022-09-28T02:50:27;9.17;;;5.43;;
16963;SDS011;8598;50.508;10.436;2022-09-28T02:53:12;8.00;;;5.30;;
16963;SDS011;8598;50.508;10.436;2022-09-28T02:56:00;6.30;;;4.90;;
16963;SDS011;8598;50.508;10.436;2022-09-28T02:58:41;7.83;;;5.03;;
16963;SDS011;8598;50.508;10.436;2022-09-28T03:01:14;6.93;;;4.53;;
16963;SDS011;8598;50.508;10.436;2022-09-28T03:03:49;6.23;;;4.43;;
16963;SDS011;8598;50.508;10.436;2022-09-28T03:06:21;13.20;;;4.47;;
16963;SDS011;8598;50.508;10.436;2022-09-28T03:08:53;5.47;;;4.53;;
16963;SDS011;8598;50.508;10.436;2022-09-28T03:11:26;8.07;;;3.80;;
16963;SDS011;8598;50.508;10.436;2022-09-28T03:13:57;5.13;;;4.10;;
16963;SDS011;8598;50.508;10.436;2022-09-28T03:16:25;5.97;;;3.17;;
16963;SDS011;8598;50.508;10.436;2022-09-28T03:18:53;4.93;;;3.47;;
16963;SDS011;8598;50.508;10.436;2022-09-28T03:21:19;5.17;;;3.43;;
16963;SDS011;8598;50.508;10.436;2022-09-28T03:23:46;4.07;;;2.90;;
16963;SDS011;8598;50.508;10.436;2022-09-28T03:26:13;4.03;;;2.77;;
16963;SDS011;8598;50.508;10.436;2022-09-28T03:28:40;4.10;;;2.60;;
16963;SDS011;8598;50.508;10.436;2022-09-28T03:31:08;3.83;;;3.10;;
16963;SDS011;8598;50.508;10.436;2022-09-28T03:33:35;5.07;;;2.67;;
16963;SDS011;8598;50.508;10.436;2022-09-28T03:36:02;2.53;;;2.33;;
16963;SDS011;8598;50.508;10.436;2022-09-28T03:38:29;2.60;;;2.33;;
16963;SDS011;8598;50.508;10.436;2022-09-28T03:40:55;1.93;;;1.70;;
16963;SDS011;8598;50.508;10.436;2022-09-28T03:43:24;4.33;;;2.00;;
16963;SDS011;8598;50.508;10.436;2022-09-28T03:45:52;4.57;;;2.03;;
16963;SDS011;8598;50.508;10.436;2022-09-28T03:48:24;2.70;;;2.00;;
16963;SDS011;8598;50.508;10.436;2022-09-28T03:50:52;2.17;;;1.90;;
16963;SDS011;8598;50.508;10.436;2022-09-28T03:53:19;2.00;;;1.80;;
16963;SDS011;8598;50.508;10.436;2022-09-28T03:55:46;2.33;;;1.90;;
16963;SDS011;8598;50.508;10.436;2022-09-28T03:58:14;3.53;;;1.73;;
16963;SDS011;8598;50.508;10.436;2022-09-28T04:00:41;2.33;;;1.70;;
16963;SDS011;8598;50.508;10.436;2022-09-28T04:03:07;4.37;;;1.47;;
16963;SDS011;8598;50.508;10.436;2022-09-28T04:05:35;3.47;;;1.70;;
16963;SDS011;8598;50.508;10.436;2022-09-28T04:08:02;2.07;;;1.83;;
16963;SDS011;8598;50.508;10.436;2022-09-28T04:10:28;1.90;;;1.80;;
16963;SDS011;8598;50.508;10.436;2022-09-28T04:12:55;3.00;;;2.47;;
16963;SDS011;8598;50.508;10.436;2022-09-28T04:15:22;3.93;;;1.63;;
16963;SDS011;8598;50.508;10.436;2022-09-28T04:17:49;2.27;;;2.07;;
16963;SDS011;8598;50.508;10.436;2022-09-28T04:20:16;3.13;;;2.10;;
16963;SDS011;8598;50.508;10.436;2022-09-28T04:22:44;3.83;;;1.80;;
16963;SDS011;8598;50.508;10.436;2022-09-28T04:25:11;2.60;;;1.97;;
16963;SDS011;8598;50.508;10.436;2022-09-28T04:27:38;2.30;;;2.10;;
16963;SDS011;8598;50.508;10.436;2022-09-28T04:30:22;3.60;;;2.50;;
16963;SDS011;8598;50.508;10.436;2022-09-28T04:32:49;2.73;;;2.20;;
16963;SDS011;8598;50.508;10.436;2022-09-28T04:35:17;1.97;;;1.77;;
16963;SDS011;8598;50.508;10.436;2022-09-28T04:37:45;2.67;;;1.97;;
16963;SDS011;8598;50.508;10.436;2022-09-28T04:40:11;2.40;;;2.20;;
16963;SDS011;8598;50.508;10.436;2022-09-28T04:42:38;2.97;;;2.03;;
16963;SDS011;8598;50.508;10.436;2022-09-28T04:45:05;3.33;;;2.37;;
16963;SDS011;8598;50.508;10.436;2022-09-28T04:47:33;2.10;;;1.90;;
16963;SDS011;8598;50.508;10.436;2022-09-28T04:49:59;1.90;;;1.80;;
16963;SDS011;8598;50.508;10.436;2022-09-28T04:52:26;2.70;;;2.30;;
16963;SDS011;8598;50.508;10.436;2022-09-28T04:54:54;2.00;;;1.90;;
16963;SDS011;8598;50.508;10.436;2022-09-28T04:57:20;2.23;;;1.80;;
16963;SDS011;8598;50.508;10.436;2022-09-28T04:59:47;1.70;;;1.50;;
16963;SDS011;8598;50.508;10.436;2022-09-28T05:02:14;2.20;;;1.57;;
16963;SDS011;8598;50.508;10.436;2022-09-28T05:04:41;2.17;;;1.80;;
16963;SDS011;8598;50.508;10.436;2022-09-28T05:07:07;3.17;;;2.00;;
16963;SDS011;8598;50.508;10.436;2022-09-28T05:09:34;2.83;;;1.90;;
16963;SDS011;8598;50.508;10.436;2022-09-28T05:12:02;6.83;;;2.00;;
16963;SDS011;8598;50.508;10.436;2022-09-28T05:14:28;4.03;;;1.70;;
16963;SDS011;8598;50.508;10.436;2022-09-28T05:16:55;3.17;;;1.90;;
16963;SDS011;8598;50.508;10.436;2022-09-28T05:19:22;1.67;;;1.57;;
16963;SDS011;8598;50.508;10.436;2022-09-28T05:21:48;3.10;;;1.90;;
16963;SDS011;8598;50.508;10.436;2022-09-28T05:24:15;1.73;;;1.60;;
16963;SDS011;8598;50.508;10.436;2022-09-28T05:26:41;2.10;;;1.90;;
16963;SDS011;8598;50.508;10.436;2022-09-28T05:29:09;2.23;;;1.50;;
16963;SDS011;8598;50.508;10.436;2022-09-28T05:31:36;1.73;;;1.50;;
16963;SDS011;8598;50.508;10.436;2022-09-28T05:34:03;1.80;;;1.70;;
16963;SDS011;8598;50.508;10.436;2022-09-28T05:36:29;2.00;;;1.60;;
16963;SDS011;8598;50.508;10.436;2022-09-28T05:38:56;3.03;;;1.73;;
16963;SDS011;8598;50.508;10.436;2022-09-28T05:41:23;2.43;;;1.80;;
16963;SDS011;8598;50.508;10.436;2022-09-28T05:43:49;2.20;;;1.80;;
16963;SDS011;8598;50.508;10.436;2022-09-28T05:46:17;5.87;;;4.37;;
16963;SDS011;8598;50.508;10.436;2022-09-28T05:48:45;6.10;;;4.20;;
16963;SDS011;8598;50.508;10.436;2022-09-28T05:51:12;3.57;;;3.27;;
16963;SDS011;8598;50.508;10.436;2022-09-28T05:53:39;2.50;;;2.20;;
16963;SDS011;8598;50.508;10.436;2022-09-28T05:56:05;2.20;;;2.00;;
16963;SDS011;8598;50.508;10.436;2022-09-28T05:58:32;2.40;;;2.20;;
16963;SDS011;8598;50.508;10.436;2022-09-28T06:00:58;2.70;;;2.37;;
16963;SDS011;8598;50.508;10.436;2022-09-28T06:03:26;3.17;;;2.63;;
16963;SDS011;8598;50.508;10.436;2022-09-28T06:05:53;2.20;;;2.00;;
16963;SDS011;8598;50.508;10.436;2022-09-28T06:08:20;2.40;;;1.93;;
16963;SDS011;8598;50.508;10.436;2022-09-28T06:10:47;3.00;;;2.60;;
16963;SDS011;8598;50.508;10.436;2022-09-28T06:13:14;3.43;;;3.03;;
16963;SDS011;8598;50.508;10.436;2022-09-28T06:15:41;3.30;;;3.00;;
16963;SDS011;8598;50.508;10.436;2022-09-28T06:18:09;4.23;;;2.70;;
16963;SDS011;8598;50.508;10.436;2022-09-28T06:20:40;5.30;;;2.53;;
16963;SDS011;8598;50.508;10.436;2022-09-28T06:23:07;3.57;;;2.50;;
16963;SDS011;8598;50.508;10.436;2022-09-28T06:25:34;3.67;;;3.17;;
16963;SDS011;8598;50.508;10.436;2022-09-28T06:28:01;6.37;;;3.23;;
16963;SDS011;8598;50.508;10.436;2022-09-28T06:30:30;3.10;;;2.63;;
16963;SDS011;8598;50.508;10.436;2022-09-28T06:32:58;3.73;;;2.77;;
16963;SDS011;8598;50.508;10.436;2022-09-28T06:35:27;2.70;;;2.47;;
16963;SDS011;8598;50.508;10.436;2022-09-28T06:37:56;2.90;;;2.50;;
16963;SDS011;8598;50.508;10.436;2022-09-28T06:40:24;2.70;;;2.40;;
16963;SDS011;8598;50.508;10.436;2022-09-28T06:42:54;2.93;;;2.00;;
16963;SDS011;8598;50.508;10.436;2022-09-28T06:45:22;1.70;;;1.60;;
16963;SDS011;8598;50.508;10.436;2022-09-28T06:47:51;2.27;;;1.40;;
16963;SDS011;8598;50.508;10.436;2022-09-28T06:50:19;1.60;;;1.50;;
16963;SDS011;8598;50.508;10.436;2022-09-28T06:52:48;1.20;;;1.10;;
16963;SDS011;8598;50.508;10.436;2022-09-28T06:55:17;4.67;;;2.50;;
16963;SDS011;8598;50.508;10.436;2022-09-28T06:57:43;1.40;;;1.30;;
16963;SDS011;8598;50.508;10.436;2022-09-28T07:00:11;1.17;;;1.07;;
16963;SDS011;8598;50.508;10.436;2022-09-28T07:02:38;1.67;;;1.57;;
16963;SDS011;8598;50.508;10.436;2022-09-28T07:05:05;4.60;;;2.37;;
16963;SDS011;8598;50.508;10.436;2022-09-28T07:07:33;3.23;;;2.13;;
16963;SDS011;8598;50.508;10.436;2022-09-28T07:10:00;7.77;;;4.60;;
16963;SDS011;8598;50.508;10.436;2022-09-28T07:12:28;3.07;;;2.67;;
16963;SDS011;8598;50.508;10.436;2022-09-28T07:14:56;4.20;;;3.20;;
16963;SDS011;8598;50.508;10.436;2022-09-28T07:17:22;2.20;;;1.90;;
16963;SDS011;8598;50.508;10.436;2022-09-28T07:19:49;2.70;;;1.93;;
16963;SDS011;8598;50.508;10.436;2022-09-28T07:22:16;2.13;;;1.57;;
16963;SDS011;8598;50.508;10.436;2022-09-28T07:24:44;2.33;;;1.60;;
16963;SDS011;8598;50.508;10.436;2022-09-28T07:27:10;2.80;;;2.37;;
16963;SDS011;8598;50.508;10.436;2022-09-28T07:29:38;10.37;;;6.37;;
16963;SDS011;8598;50.508;10.436;2022-09-28T07:32:05;7.87;;;4.93;;
16963;SDS011;8598;50.508;10.436;2022-09-28T07:34:32;3.77;;;2.40;;
16963;SDS011;8598;50.508;10.436;2022-09-28T07:37:04;1.43;;;1.20;;
16963;SDS011;8598;50.508;10.436;2022-09-28T07:39:35;4.97;;;2.47;;
16963;SDS011;8598;50.508;10.436;2022-09-28T07:42:22;1.80;;;1.70;;
16963;SDS011;8598;50.508;10.436;2022-09-28T07:44:50;5.87;;;5.03;;
16963;SDS011;8598;50.508;10.436;2022-09-28T07:47:17;3.27;;;3.00;;
16963;SDS011;8598;50.508;10.436;2022-09-28T07:49:50;13.30;;;9.80;;
16963;SDS011;8598;50.508;10.436;2022-09-28T07:52:18;10.00;;;6.50;;
16963;SDS011;8598;50.508;10.436;2022-09-28T07:54:46;11.40;;;7.53;;
16963;SDS011;8598;50.508;10.436;2022-09-28T07:57:16;2.77;;;2.53;;
16963;SDS011;8598;50.508;10.436;2022-09-28T07:59:42;9.97;;;6.10;;
16963;SDS011;8598;50.508;10.436;2022-09-28T08:02:11;3.47;;;2.77;;
16963;SDS011;8598;50.508;10.436;2022-09-28T08:04:38;4.43;;;4.03;;
16963;SDS011;8598;50.508;10.436;2022-09-28T08:07:06;2.90;;;2.70;;
16963;SDS011;8598;50.508;10.436;2022-09-28T08:09:34;2.50;;;2.30;;
16963;SDS011;8598;50.508;10.436;2022-09-28T08:12:01;5.33;;;4.23;;
16963;SDS011;8598;50.508;10.436;2022-09-28T08:14:28;31.53;;;20.93;;
16963;SDS011;8598;50.508;10.436;2022-09-28T08:16:57;2.73;;;2.53;;
16963;SDS011;8598;50.508;10.436;2022-09-28T08:19:25;3.53;;;3.13;;
16963;SDS011;8598;50.508;10.436;2022-09-28T08:22:14;8.43;;;5.57;;
16963;SDS011;8598;50.508;10.436;2022-09-28T08:24:41;2.43;;;2.23;;
16963;SDS011;8598;50.508;10.436;2022-09-28T08:27:08;2.20;;;1.73;;
16963;SDS011;8598;50.508;10.436;2022-09-28T08:29:34;1.77;;;1.67;;
16963;SDS011;8598;50.508;10.436;2022-09-28T08:32:01;4.07;;;3.67;;
16963;SDS011;8598;50.508;10.436;2022-09-28T08:34:29;3.87;;;2.80;;
16963;SDS011;8598;50.508;10.436;2022-09-28T08:36:56;2.40;;;2.20;;
16963;SDS011;8598;50.508;10.436;2022-09-28T08:39:23;5.57;;;3.53;;
16963;SDS011;8598;50.508;10.436;2022-09-28T08:41:50;1.93;;;1.83;;
16963;SDS011;8598;50.508;10.436;2022-09-28T08:44:24;2.80;;;1.50;;
16963;SDS011;8598;50.508;10.436;2022-09-28T08:46:57;2.00;;;1.80;;
16963;SDS011;8598;50.508;10.436;2022-09-28T08:49:27;4.33;;;1.60;;
16963;SDS011;8598;50.508;10.436;2022-09-28T08:52:01;3.60;;;1.97;;
16963;SDS011;8598;50.508;10.436;2022-09-28T08:54:32;2.40;;;2.20;;
16963;SDS011;8598;50.508;10.436;2022-09-28T08:57:05;2.23;;;1.80;;
16963;SDS011;8598;50.508;10.436;2022-09-28T08:59:39;2.27;;;1.87;;
16963;SDS011;8598;50.508;10.436;2022-09-28T09:02:12;2.87;;;1.63;;
16963;SDS011;8598;50.508;10.436;2022-09-28T09:04:44;2.63;;;1.70;;
16963;SDS011;8598;50.508;10.436;2022-09-28T09:07:14;1.67;;;1.57;;
16963;SDS011;8598;50.508;10.436;2022-09-28T09:10:04;2.90;;;1.73;;
16963;SDS011;8598;50.508;10.436;2022-09-28T09:12:40;2.20;;;1.30;;
16963;SDS011;8598;50.508;10.436;2022-09-28T09:15:19;2.10;;;1.43;;
16963;SDS011;8598;50.508;10.436;2022-09-28T09:18:07;3.20;;;2.00;;
16963;SDS011;8598;50.508;10.436;2022-09-28T09:20:46;2.13;;;1.40;;
16963;SDS011;8598;50.508;10.436;2022-09-28T09:23:16;2.57;;;1.90;;
16963;SDS011;8598;50.508;10.436;2022-09-28T09:25:47;1.87;;;1.57;;
16963;SDS011;8598;50.508;10.436;2022-09-28T09:31:07;2.10;;;1.60;;
16963;SDS011;8598;50.508;10.436;2022-09-28T09:33:46;2.47;;;1.43;;
16963;SDS011;8598;50.508;10.436;2022-09-28T09:36:36;2.03;;;1.40;;
16963;SDS011;8598;50.508;10.436;2022-09-28T09:39:18;2.30;;;2.20;;
16963;SDS011;8598;50.508;10.436;2022-09-28T09:42:00;1.43;;;1.33;;
16963;SDS011;8598;50.508;10.436;2022-09-28T09:44:45;3.13;;;2.93;;
16963;SDS011;8598;50.508;10.436;2022-09-28T09:47:22;3.97;;;2.23;;
16963;SDS011;8598;50.508;10.436;2022-09-28T09:49:52;2.10;;;1.97;;
16963;SDS011;8598;50.508;10.436;2022-09-28T09:52:28;2.03;;;1.53;;
16963;SDS011;8598;50.508;10.436;2022-09-28T09:55:12;2.10;;;1.90;;
16963;SDS011;8598;50.508;10.436;2022-09-28T09:57:42;3.37;;;1.40;;
16963;SDS011;8598;50.508;10.436;2022-09-28T10:00:13;2.60;;;1.73;;
16963;SDS011;8598;50.508;10.436;2022-09-28T10:02:41;1.53;;;1.43;;
16963;SDS011;8598;50.508;10.436;2022-09-28T10:05:15;1.67;;;1.57;;
16963;SDS011;8598;50.508;10.436;2022-09-28T10:07:48;1.47;;;1.30;;
16963;SDS011;8598;50.508;10.436;2022-09-28T10:10:21;3.27;;;1.73;;
16963;SDS011;8598;50.508;10.436;2022-09-28T10:12:51;3.27;;;1.37;;
16963;SDS011;8598;50.508;10.436;2022-09-28T10:15:20;2.50;;;1.80;;
16963;SDS011;8598;50.508;10.436;2022-09-28T10:17:49;3.97;;;3.07;;
16963;SDS011;8598;50.508;10.436;2022-09-28T10:20:16;4.63;;;3.90;;
16963;SDS011;8598;50.508;10.436;2022-09-28T10:22:43;4.10;;;1.90;;
16963;SDS011;8598;50.508;10.436;2022-09-28T10:25:12;1.83;;;1.73;;
16963;SDS011;8598;50.508;10.436;2022-09-28T10:27:41;1.90;;;1.70;;
16963;SDS011;8598;50.508;10.436;2022-09-28T10:30:12;1.53;;;1.43;;
16963;SDS011;8598;50.508;10.436;2022-09-28T10:32:42;1.83;;;1.43;;
16963;SDS011;8598;50.508;10.436;2022-09-28T10:35:13;1.80;;;1.70;;
16963;SDS011;8598;50.508;10.436;2022-09-28T10:37:47;2.43;;;1.63;;
16963;SDS011;8598;50.508;10.436;2022-09-28T10:40:28;5.07;;;2.10;;
16963;SDS011;8598;50.508;10.436;2022-09-28T10:43:00;3.30;;;2.17;;
16963;SDS011;8598;50.508;10.436;2022-09-28T10:45:27;2.00;;;1.90;;
16963;SDS011;8598;50.508;10.436;2022-09-28T10:47:59;3.73;;;2.00;;
16963;SDS011;8598;50.508;10.436;2022-09-28T10:50:28;1.53;;;1.40;;
16963;SDS011;8598;50.508;10.436;2022-09-28T10:52:56;2.80;;;2.40;;
16963;SDS011;8598;50.508;10.436;2022-09-28T10:55:37;2.60;;;1.27;;
16963;SDS011;8598;50.508;10.436;2022-09-28T10:58:18;1.83;;;1.73;;
16963;SDS011;8598;50.508;10.436;2022-09-28T11:00:50;1.40;;;1.30;;
16963;SDS011;8598;50.508;10.436;2022-09-28T11:03:18;1.57;;;1.47;;
16963;SDS011;8598;50.508;10.436;2022-09-28T11:05:52;6.70;;;4.80;;
16963;SDS011;8598;50.508;10.436;2022-09-28T11:08:22;4.20;;;1.90;;
16963;SDS011;8598;50.508;10.436;2022-09-28T11:11:03;2.53;;;1.70;;
16963;SDS011;8598;50.508;10.436;2022-09-28T11:13:42;1.90;;;1.80;;
16963;SDS011;8598;50.508;10.436;2022-09-28T11:16:17;1.73;;;1.63;;
16963;SDS011;8598;50.508;10.436;2022-09-28T11:18:54;1.87;;;1.77;;
16963;SDS011;8598;50.508;10.436;2022-09-28T11:21:23;1.80;;;1.70;;
16963;SDS011;8598;50.508;10.436;2022-09-28T11:23:55;2.10;;;1.90;;
16963;SDS011;8598;50.508;10.436;2022-09-28T11:26:26;1.40;;;1.20;;
16963;SDS011;8598;50.508;10.436;2022-09-28T11:28:59;2.33;;;1.83;;
16963;SDS011;8598;50.508;10.436;2022-09-28T11:31:26;1.60;;;1.47;;
16963;SDS011;8598;50.508;10.436;2022-09-28T11:34:01;1.57;;;1.47;;
16963;SDS011;8598;50.508;10.436;2022-09-28T11:36:36;1.67;;;1.57;;
16963;SDS011;8598;50.508;10.436;2022-09-28T11:39:24;1.70;;;1.60;;
16963;SDS011;8598;50.508;10.436;2022-09-28T11:42:00;1.57;;;1.47;;
16963;SDS011;8598;50.508;10.436;2022-09-28T11:44:40;1.97;;;1.83;;
16963;SDS011;8598;50.508;10.436;2022-09-28T11:47:21;1.27;;;1.27;;
16963;SDS011;8598;50.508;10.436;2022-09-28T11:50:02;1.43;;;1.00;;
16963;SDS011;8598;50.508;10.436;2022-09-28T11:52:40;1.50;;;1.37;;
16963;SDS011;8598;50.508;10.436;2022-09-28T11:55:24;1.70;;;1.53;;
16963;SDS011;8598;50.508;10.436;2022-09-28T11:58:01;1.80;;;1.70;;
16963;SDS011;8598;50.508;10.436;2022-09-28T12:00:32;7.73;;;4.17;;
16963;SDS011;8598;50.508;10.436;2022-09-28T12:03:03;4.13;;;2.83;;
16963;SDS011;8598;50.508;10.436;2022-09-28T12:05:33;9.23;;;6.43;;
16963;SDS011;8598;50.508;10.436;2022-09-28T12:08:06;2.03;;;1.90;;
16963;SDS011;8598;50.508;10.436;2022-09-28T12:10:40;3.03;;;2.23;;
16963;SDS011;8598;50.508;10.436;2022-09-28T12:13:14;1.43;;;1.33;;
16963;SDS011;8598;50.508;10.436;2022-09-28T12:15:47;1.37;;;1.27;;
16963;SDS011;8598;50.508;10.436;2022-09-28T12:18:19;1.67;;;1.57;;
16963;SDS011;8598;50.508;10.436;2022-09-28T12:20:49;5.47;;;2.20;;
16963;SDS011;8598;50.508;10.436;2022-09-28T12:23:21;2.40;;;1.63;;
16963;SDS011;8598;50.508;10.436;2022-09-28T12:25:56;2.00;;;1.90;;
16963;SDS011;8598;50.508;10.436;2022-09-28T12:28:28;1.70;;;1.60;;
16963;SDS011;8598;50.508;10.436;2022-09-28T12:31:04;3.60;;;2.00;;
16963;SDS011;8598;50.508;10.436;2022-09-28T12:33:36;2.30;;;1.93;;
16963;SDS011;8598;50.508;10.436;2022-09-28T12:36:06;2.27;;;2.17;;
16963;SDS011;8598;50.508;10.436;2022-09-28T12:38:47;2.33;;;2.13;;
16963;SDS011;8598;50.508;10.436;2022-09-28T12:41:31;4.43;;;3.47;;
16963;SDS011;8598;50.508;10.436;2022-09-28T12:44:13;2.10;;;2.00;;
16963;SDS011;8598;50.508;10.436;2022-09-28T12:46:55;2.13;;;2.03;;
16963;SDS011;8598;50.508;10.436;2022-09-28T12:49:36;2.33;;;2.07;;
16963;SDS011;8598;50.508;10.436;2022-09-28T12:52:17;2.20;;;1.77;;
16963;SDS011;8598;50.508;10.436;2022-09-28T12:55:03;1.87;;;1.77;;
16963;SDS011;8598;50.508;10.436;2022-09-28T12:57:48;2.20;;;2.07;;
16963;SDS011;8598;50.508;10.436;2022-09-28T13:00:25;1.63;;;1.53;;
16963;SDS011;8598;50.508;10.436;2022-09-28T13:03:14;1.73;;;1.63;;
16963;SDS011;8598;50.508;10.436;2022-09-28T13:06:19;1.40;;;1.30;;
16963;SDS011;8598;50.508;10.436;2022-09-28T13:09:02;5.80;;;2.43;;
16963;SDS011;8598;50.508;10.436;2022-09-28T13:11:40;3.80;;;2.17;;
16963;SDS011;8598;50.508;10.436;2022-09-28T13:14:28;1.87;;;1.77;;
16963;SDS011;8598;50.508;10.436;2022-09-28T13:17:21;4.67;;;3.47;;
16963;SDS011;8598;50.508;10.436;2022-09-28T13:19:56;1.97;;;1.87;;
16963;SDS011;8598;50.508;10.436;2022-09-28T13:22:27;3.37;;;2.77;;
16963;SDS011;8598;50.508;10.436;2022-09-28T13:25:02;2.13;;;1.70;;
16963;SDS011;8598;50.508;10.436;2022-09-28T13:27:36;1.63;;;1.53;;
16963;SDS011;8598;50.508;10.436;2022-09-28T13:30:06;2.43;;;2.23;;
16963;SDS011;8598;50.508;10.436;2022-09-28T13:32:39;2.50;;;2.30;;
16963;SDS011;8598;50.508;10.436;2022-09-28T13:35:10;2.93;;;2.03;;
16963;SDS011;8598;50.508;10.436;2022-09-28T13:37:38;1.90;;;1.80;;
16963;SDS011;8598;50.508;10.436;2022-09-28T13:40:06;1.60;;;1.50;;
16963;SDS011;8598;50.508;10.436;2022-09-28T13:42:40;4.10;;;2.37;;
16963;SDS011;8598;50.508;10.436;2022-09-28T13:45:30;1.30;;;1.20;;
16963;SDS011;8598;50.508;10.436;2022-09-28T13:48:15;1.90;;;1.80;;
16963;SDS011;8598;50.508;10.436;2022-09-28T13:53:44;1.83;;;1.20;;
16963;SDS011;8598;50.508;10.436;2022-09-28T13:56:26;1.60;;;1.50;;
16963;SDS011;8598;50.508;10.436;2022-09-28T13:58:59;1.73;;;1.63;;
16963;SDS011;8598;50.508;10.436;2022-09-28T14:01:29;1.77;;;1.67;;
16963;SDS011;8598;50.508;10.436;2022-09-28T14:04:12;1.50;;;1.40;;
16963;SDS011;8598;50.508;10.436;2022-09-28T14:06:43;1.90;;;1.70;;
16963;SDS011;8598;50.508;10.436;2022-09-28T14:09:38;2.07;;;1.97;;
16963;SDS011;8598;50.508;10.436;2022-09-28T14:12:26;1.93;;;1.77;;
16963;SDS011;8598;50.508;10.436;2022-09-28T14:18:09;1.67;;;1.40;;
16963;SDS011;8598;50.508;10.436;2022-09-28T14:23:49;1.77;;;1.67;;
16963;SDS011;8598;50.508;10.436;2022-09-28T14:26:34;1.70;;;1.60;;
16963;SDS011;8598;50.508;10.436;2022-09-28T14:29:19;6.27;;;4.20;;
16963;SDS011;8598;50.508;10.436;2022-09-28T14:31:52;5.07;;;4.67;;
16963;SDS011;8598;50.508;10.436;2022-09-28T14:34:22;2.67;;;2.47;;
16963;SDS011;8598;50.508;10.436;2022-09-28T14:36:58;2.33;;;2.13;;
16963;SDS011;8598;50.508;10.436;2022-09-28T14:39:44;2.70;;;1.83;;
16963;SDS011;8598;50.508;10.436;2022-09-28T14:42:30;1.40;;;1.30;;
16963;SDS011;8598;50.508;10.436;2022-09-28T14:50:44;2.90;;;1.97;;
16963;SDS011;8598;50.508;10.436;2022-09-28T14:53:16;1.53;;;1.43;;
16963;SDS011;8598;50.508;10.436;2022-09-28T14:55:49;1.57;;;1.47;;
16963;SDS011;8598;50.508;10.436;2022-09-28T14:58:20;2.13;;;2.03;;
16963;SDS011;8598;50.508;10.436;2022-09-28T15:00:50;1.57;;;1.47;;
16963;SDS011;8598;50.508;10.436;2022-09-28T15:03:28;1.90;;;1.80;;
16963;SDS011;8598;50.508;10.436;2022-09-28T15:05:57;1.40;;;1.30;;
16963;SDS011;8598;50.508;10.436;2022-09-28T15:08:35;1.97;;;1.63;;
16963;SDS011;8598;50.508;10.436;2022-09-28T15:11:03;1.80;;;1.70;;
16963;SDS011;8598;50.508;10.436;2022-09-28T15:13:31;1.60;;;1.50;;
16963;SDS011;8598;50.508;10.436;2022-09-28T15:15:58;3.43;;;2.57;;
16963;SDS011;8598;50.508;10.436;2022-09-28T15:18:36;2.70;;;2.43;;
16963;SDS011;8598;50.508;10.436;2022-09-28T15:21:30;1.60;;;1.50;;
16963;SDS011;8598;50.508;10.436;2022-09-28T15:24:16;2.97;;;2.30;;
16963;SDS011;8598;50.508;10.436;2022-09-28T15:26:49;2.97;;;1.77;;
16963;SDS011;8598;50.508;10.436;2022-09-28T15:29:17;2.30;;;1.90;;
16963;SDS011;8598;50.508;10.436;2022-09-28T15:31:44;3.20;;;2.07;;
16963;SDS011;8598;50.508;10.436;2022-09-28T15:34:24;1.77;;;1.60;;